Terminal Aerodrome Forecast
Issued by NWS Pueblo, CO

Home | Current Version | Previous Version | Text Only | Print | Product List | Glossary On
Versions: 1 2 3 4 5 6 7 8 9 10 11 12 13 14 15 16 17 18 19 20 21
000
FTUS45 KPUB 161732
TAFCOS
TAF
KCOS 161732Z 1618/1718 01012G24KT P6SM SCT100 BKN200
     FM162100 12008KT P6SM VCSH SCT040 BKN070
     FM170000 14008KT 3SM -SN BR OVC010
     FM170600 17010KT 6SM BR SCT010 BKN025
     FM170900 VRB06KT P6SM SCT020 BKN060
     FM171300 VRB06KT P6SM SCT060 SCT120=

USA.gov is the U.S. government's official web portal to all federal, state and local government web resources and services.